Terminal Aerodrome Forecast
Issued by NWS Flagstaff, AZ

Home | Current Version | Previous Version | Text Only | Print | Product List | Glossary On
Versions: 1 2 3 4 5 6 7 8 9 10 11 12 13 14 15 16 17 18 19 20 21
000
FTUS45 KFGZ 202337
TAFFLG
TAF
KFLG 202337Z 2100/2124 23006KT P6SM FEW018 SCT250
      TEMPO 2107/2111 SCT009
     FM211600 23008KT P6SM FEW035 BKN200=

USA.gov is the U.S. government's official web portal to all federal, state and local government web resources and services.